Time;durP1;ratioP1;P1;durP2;ratioP2;P2;SDS_P1;SDS_P2;PMS_P1;PMS_P2;Temp;Humidity;BMP_temperature;BMP_pressure;BME280_temperature;BME280_humidity;BME280_pressure;Samples;Min_cycle;Max_cycle;Signal;HPM_P1;HPM_P2
2023/11/10 00:00:54;;;;;;;13.30;1.92;;;;;;;7.19;100.00;97706.28;4915309;29;20080;-96
2023/11/10 00:03:25;;;;;;;11.95;2.05;;;;;;;7.07;100.00;97692.81;4929697;29;20060;-96
2023/11/10 00:07:09;;;;;;;11.70;1.58;;;;;;;7.13;100.00;97693.91;4960238;28;20053;-96
2023/11/10 00:09:47;;;;;;;12.60;2.60;;;;;;;7.18;100.00;97699.38;4957138;28;20073;-95
2023/11/10 00:12:18;;;;;;;13.48;1.83;;;;;;;7.10;100.00;97683.78;4941592;28;20051;-95
2023/11/10 00:15:40;;;;;;;17.65;2.58;;;;;;;7.18;100.00;97699.38;4942831;28;20042;-96
2023/11/10 00:18:09;;;;;;;16.67;2.35;;;;;;;7.15;100.00;97691.88;4936886;28;20090;-95
2023/11/10 00:20:43;;;;;;;9.57;2.47;;;;;;;7.21;100.00;97690.31;4958159;28;20187;-95
2023/11/10 00:23:51;;;;;;;;;;;;;;;;;;;;;
2023/11/10 00:26:59;;;;;;;;;;;;;;;;;;;;;
2023/11/10 00:30:15;;;;;;;10.65;1.80;;;;;;;7.18;100.00;97670.47;4981840;28;20538;-92
2023/11/10 00:33:17;;;;;;;15.25;2.75;;;;;;;7.32;100.00;97675.84;4954205;28;20035;-95
2023/11/10 00:35:54;;;;;;;12.02;2.13;;;;;;;7.28;100.00;97672.78;4942209;28;20570;-95
2023/11/10 00:38:27;;;;;;;13.77;2.35;;;;;;;7.28;100.00;97650.94;4938785;29;20063;-95
2023/11/10 00:40:56;;;;;;;18.30;3.67;;;;;;;7.27;100.00;97642.25;4968702;28;20045;-91
2023/11/10 00:43:24;;;;;;;18.27;2.65;;;;;;;7.30;100.00;97644.50;4938679;28;20125;-91
2023/11/10 00:45:54;;;;;;;15.85;2.30;;;;;;;7.29;100.00;97632.34;4940427;28;20038;-93
2023/11/10 00:48:20;;;;;;;16.30;2.67;;;;;;;7.26;100.00;97626.69;4924471;29;20372;-95
2023/11/10 00:50:46;;;;;;;15.48;2.80;;;;;;;7.27;100.00;97623.88;4926590;28;20030;-94
2023/11/10 00:53:11;;;;;;;12.98;2.65;;;;;;;7.27;100.00;97609.91;4949616;28;20062;-93
2023/11/10 00:55:38;;;;;;;15.95;2.60;;;;;;;7.21;100.00;97629.88;4943350;28;20054;-95
2023/11/10 00:58:49;;;;;;;15.50;2.42;;;;;;;7.30;100.00;97634.00;4930397;29;20051;-95
2023/11/10 01:01:18;;;;;;;16.02;2.78;;;;;;;7.31;100.00;97632.97;4909258;28;20487;-90
2023/11/10 01:03:44;;;;;;;16.60;2.33;;;;;;;7.37;100.00;97634.03;4955895;28;20049;-90
2023/11/10 01:06:10;;;;;;;15.50;2.00;;;;;;;7.42;100.00;97636.88;4949564;28;20115;-91
2023/11/10 01:08:36;;;;;;;13.73;2.78;;;;;;;7.47;100.00;97615.25;4940035;28;20117;-91
2023/11/10 01:11:02;;;;;;;21.35;2.22;;;;;;;7.48;100.00;97605.56;4964299;28;20051;-95
2023/11/10 01:13:28;;;;;;;16.25;3.45;;;;;;;7.50;100.00;97606.19;4959212;28;20023;-95
2023/11/10 01:15:56;;;;;;;13.80;2.20;;;;;;;7.44;100.00;97595.44;4935687;29;20039;-91
2023/11/10 01:18:24;;;;;;;12.48;2.50;;;;;;;7.38;100.00;97579.66;4942376;28;20039;-91
2023/11/10 01:20:54;;;;;;;13.98;2.35;;;;;;;7.41;100.00;97577.44;4944008;29;20049;-90
2023/11/10 01:23:33;;;;;;;17.67;2.08;;;;;;;7.45;100.00;97572.63;4948724;28;20117;-91
2023/11/10 01:25:59;;;;;;;14.60;2.45;;;;;;;7.38;100.00;97566.50;4945825;28;20045;-95
2023/11/10 01:28:28;;;;;;;13.75;2.60;;;;;;;7.42;100.00;97571.19;4945372;28;20074;-95
2023/11/10 01:30:54;;;;;;;12.18;1.77;;;;;;;7.44;100.00;97577.06;4951263;28;20043;-95
2023/11/10 01:33:20;;;;;;;19.65;2.38;;;;;;;7.43;100.00;97575.44;4945108;28;20483;-95
2023/11/10 01:35:46;;;;;;;12.60;1.85;;;;;;;7.41;100.00;97574.81;4948435;28;20046;-94
2023/11/10 01:38:12;;;;;;;15.70;3.10;;;;;;;7.43;100.00;97570.19;4919066;28;20042;-95
2023/11/10 01:40:45;;;;;;;13.98;2.33;;;;;;;7.39;100.00;97579.44;4945126;28;20170;-95
2023/11/10 01:43:14;;;;;;;17.00;1.55;;;;;;;7.45;100.00;97576.03;4959021;28;20095;-95
2023/11/10 01:45:41;;;;;;;24.60;2.30;;;;;;;7.42;100.00;97581.69;4927406;28;20027;-90
2023/11/10 01:48:10;;;;;;;17.98;2.08;;;;;;;7.42;100.00;97583.53;4943155;28;20038;-89
2023/11/10 01:50:43;;;;;;;32.38;3.45;;;;;;;7.43;100.00;97596.47;4959932;28;20038;-95
2023/11/10 01:53:10;;;;;;;11.73;1.98;;;;;;;7.39;100.00;97600.47;4949275;28;20038;-95
2023/11/10 01:55:37;;;;;;;8.45;1.40;;;;;;;7.48;100.00;97610.84;4941779;29;20035;-95
2023/11/10 01:58:05;;;;;;;23.77;2.65;;;;;;;7.48;100.00;97598.50;4975956;28;20125;-95
2023/11/10 02:00:31;;;;;;;14.43;2.22;;;;;;;7.49;100.00;97602.75;4955640;28;20039;-95
2023/11/10 02:03:02;;;;;;;17.92;1.83;;;;;;;7.47;100.00;97610.00;4951091;28;20038;-94
2023/11/10 02:05:28;;;;;;;13.48;2.33;;;;;;;7.39;100.00;97605.72;4927045;28;20471;-94
2023/11/10 02:07:54;;;;;;;19.48;2.40;;;;;;;7.39;100.00;97612.81;4930806;28;20042;-95
2023/11/10 02:10:20;;;;;;;19.60;2.67;;;;;;;7.45;100.00;97619.94;4957564;28;20039;-96
2023/11/10 02:13:07;;;;;;;17.52;2.30;;;;;;;7.49;100.00;97618.53;4961540;28;20039;-95
2023/11/10 02:15:34;;;;;;;12.48;2.05;;;;;;;7.42;100.00;97617.69;4945875;28;20023;-95
2023/11/10 02:18:00;;;;;;;13.68;2.25;;;;;;;7.44;100.00;97626.16;4944738;29;20039;-95
2023/11/10 02:20:45;;;;;;;14.52;1.83;;;;;;;7.46;100.00;97626.78;4927780;28;20039;-95
2023/11/10 02:23:29;;;;;;;9.35;1.50;;;;;;;7.36;100.00;97642.91;4943519;28;20041;-95
2023/11/10 02:26:12;;;;;;;18.92;2.50;;;;;;;7.28;100.00;97635.16;4943645;28;20093;-95
2023/11/10 02:28:47;;;;;;;19.70;2.93;;;;;;;7.24;100.00;97641.81;4935117;28;20125;-95
2023/11/10 02:31:21;;;;;;;12.23;2.08;;;;;;;7.30;100.00;97657.63;4959892;28;20489;-95
2023/11/10 02:33:53;;;;;;;16.73;2.28;;;;;;;7.27;100.00;97673.78;4959308;28;20474;-95
2023/11/10 02:36:20;;;;;;;19.45;2.40;;;;;;;7.29;100.00;97676.22;4968087;28;20077;-95
2023/11/10 02:38:50;;;;;;;22.17;2.10;;;;;;;7.27;100.00;97688.72;4957517;28;20122;-95
2023/11/10 02:41:24;;;;;;;18.73;1.95;;;;;;;7.26;100.00;97695.00;4943385;28;20119;-95
2023/11/10 02:44:01;;;;;;;22.73;2.55;;;;;;;7.22;100.00;97709.50;4941513;28;20035;-95
2023/11/10 02:46:38;;;;;;;19.25;2.42;;;;;;;7.22;100.00;97720.00;4967879;28;20038;-95
2023/11/10 02:49:34;;;;;;;22.05;2.83;;;;;;;7.07;100.00;97715.66;4951542;28;20138;-95
2023/11/10 02:52:03;;;;;;;23.77;2.78;;;;;;;7.12;100.00;97728.22;4941882;28;20039;-92
2023/11/10 02:54:29;;;;;;;17.15;2.45;;;;;;;7.13;100.00;97751.69;4972089;28;20158;-92
2023/11/10 02:56:55;;;;;;;15.75;2.15;;;;;;;7.11;100.00;97756.31;4979481;28;20046;-95
2023/11/10 02:59:20;;;;;;;17.58;2.47;;;;;;;7.10;100.00;97759.94;4943851;28;20039;-95
2023/11/10 03:01:46;;;;;;;14.13;2.53;;;;;;;7.09;100.00;97771.44;4933589;28;20070;-95
2023/11/10 03:04:12;;;;;;;18.15;4.25;;;;;;;7.08;100.00;97777.69;4958637;28;20098;-96
2023/11/10 03:06:38;;;;;;;10.75;1.60;;;;;;;7.06;100.00;97782.31;4945896;28;20039;-95
2023/11/10 03:09:04;;;;;;;15.27;1.73;;;;;;;7.07;100.00;97792.63;4977747;28;20030;-95
2023/11/10 03:11:30;;;;;;;12.50;2.47;;;;;;;7.06;100.00;97804.16;4957327;28;20046;-95
2023/11/10 03:13:55;;;;;;;10.73;1.85;;;;;;;7.06;100.00;97812.03;4942559;28;20039;-94
2023/11/10 03:16:22;;;;;;;12.40;2.45;;;;;;;7.05;100.00;97817.47;4957653;28;20102;-95
2023/11/10 03:18:52;;;;;;;10.13;1.33;;;;;;;7.07;100.00;97828.63;4937148;28;20050;-92
2023/11/10 03:21:19;;;;;;;7.28;1.27;;;;;;;7.14;100.00;97839.16;4943749;28;20070;-95
2023/11/10 03:23:45;;;;;;;17.15;1.92;;;;;;;7.16;100.00;97843.25;4940900;28;20046;-95
2023/11/10 03:26:12;;;;;;;7.28;0.85;;;;;;;7.19;100.00;97853.38;4926419;28;20084;-96
2023/11/10 03:28:38;;;;;;;9.82;1.55;;;;;;;7.16;100.00;97864.28;4943049;28;20046;-94
2023/11/10 03:31:08;;;;;;;10.85;1.45;;;;;;;7.26;100.00;97863.16;4976285;28;20391;-96
2023/11/10 03:33:36;;;;;;;15.77;1.40;;;;;;;7.17;100.00;97872.94;4946861;28;20045;-95
2023/11/10 03:36:03;;;;;;;13.85;2.10;;;;;;;7.20;100.00;97901.47;4961490;28;20878;-95
2023/11/10 03:38:29;;;;;;;14.63;1.45;;;;;;;7.19;100.00;97921.69;4971951;28;20045;-94
2023/11/10 03:40:55;;;;;;;4.80;0.90;;;;;;;7.17;100.00;97920.22;4933439;28;20419;-96
2023/11/10 03:43:20;;;;;;;9.85;1.27;;;;;;;7.24;100.00;97926.38;4939860;29;20051;-95
2023/11/10 03:45:47;;;;;;;8.13;1.33;;;;;;;7.25;100.00;97941.16;4953646;28;20035;-94
2023/11/10 03:48:12;;;;;;;5.60;1.10;;;;;;;7.24;100.00;97943.97;4956280;28;20038;-96
2023/11/10 03:50:41;;;;;;;9.48;1.00;;;;;;;7.25;100.00;97961.34;4947666;28;20035;-95
2023/11/10 03:53:07;;;;;;;4.10;0.60;;;;;;;7.26;100.00;97968.25;4955824;28;20114;-95
2023/11/10 03:55:32;;;;;;;8.50;0.70;;;;;;;7.20;100.00;97960.09;4940701;29;20031;-95
2023/11/10 03:57:58;;;;;;;2.38;0.38;;;;;;;7.15;100.00;97978.22;4971934;28;20038;-94
2023/11/10 04:00:24;;;;;;;0.77;0.28;;;;;;;7.15;100.00;97978.22;4957375;28;20043;-96
2023/11/10 04:02:50;;;;;;;3.50;0.40;;;;;;;7.07;100.00;98001.97;4951176;28;20499;-94
2023/11/10 04:05:16;;;;;;;1.75;0.40;;;;;;;7.06;100.00;98009.03;4962933;28;20095;-95
2023/11/10 04:07:42;;;;;;;3.78;0.80;;;;;;;7.01;100.00;98008.75;4965601;28;20118;-94
2023/11/10 04:10:10;;;;;;;3.30;0.45;;;;;;;6.91;100.00;98027.41;4927399;28;20034;-95
2023/11/10 04:12:36;;;;;;;1.35;0.30;;;;;;;6.87;100.00;98044.53;4969476;28;20643;-95
2023/11/10 04:15:03;;;;;;;1.10;0.30;;;;;;;6.78;100.00;98042.97;4941216;29;20031;-95
2023/11/10 04:17:29;;;;;;;1.55;0.30;;;;;;;6.72;100.00;98072.56;4980122;28;20038;-96
2023/11/10 04:19:55;;;;;;;1.35;0.40;;;;;;;6.69;100.00;98084.22;4954656;28;20035;-94
2023/11/10 04:22:21;;;;;;;2.00;0.50;;;;;;;6.67;100.00;98087.03;4928553;28;20050;-94
2023/11/10 04:24:46;;;;;;;0.43;0.20;;;;;;;6.69;100.00;98105.22;4947119;28;20543;-94
2023/11/10 04:27:12;;;;;;;0.32;0.30;;;;;;;6.64;100.00;98124.13;4944004;28;20133;-95
2023/11/10 04:29:39;;;;;;;0.20;0.20;;;;;;;6.67;100.00;98141.38;4943349;28;20119;-95
2023/11/10 04:32:05;;;;;;;1.88;0.63;;;;;;;6.64;100.00;98142.50;4957012;28;20126;-95
2023/11/10 04:34:31;;;;;;;1.45;0.40;;;;;;;6.61;100.00;98149.94;4953058;28;20117;-94
2023/11/10 04:36:57;;;;;;;1.27;0.65;;;;;;;6.66;100.00;98186.97;4951355;28;20035;-94
2023/11/10 04:39:23;;;;;;;0.60;0.30;;;;;;;6.65;100.00;98187.97;4956262;28;20109;-94
2023/11/10 04:41:49;;;;;;;2.60;0.38;;;;;;;6.64;100.00;98202.88;4944000;28;20039;-95
2023/11/10 04:44:16;;;;;;;2.17;0.55;;;;;;;6.63;100.00;98217.00;4948272;28;20118;-94
2023/11/10 04:46:42;;;;;;;1.08;0.38;;;;;;;6.63;100.00;98224.06;4948867;28;20052;-95
2023/11/10 04:49:10;;;;;;;1.17;0.38;;;;;;;6.64;100.00;98230.97;4954056;28;20055;-94
2023/11/10 04:51:36;;;;;;;4.25;1.15;;;;;;;6.65;100.00;98245.72;4925311;28;20034;-95
2023/11/10 04:54:03;;;;;;;1.45;0.70;;;;;;;6.67;100.00;98262.13;4957547;28;20134;-95
2023/11/10 04:56:29;;;;;;;1.02;0.60;;;;;;;6.62;100.00;98270.50;4961229;28;20038;-95
2023/11/10 04:58:55;;;;;;;2.85;1.00;;;;;;;6.59;100.00;98273.50;4981017;28;20030;-95
2023/11/10 05:01:21;;;;;;;1.30;0.90;;;;;;;6.60;100.00;98287.41;4949082;28;20034;-94
2023/11/10 05:03:48;;;;;;;2.55;0.90;;;;;;;6.59;100.00;98297.13;4947940;28;20053;-95
2023/11/10 05:06:14;;;;;;;2.22;1.00;;;;;;;6.60;100.00;98318.91;4945073;28;20472;-95
2023/11/10 05:08:40;;;;;;;2.45;0.82;;;;;;;6.57;100.00;98333.19;4978725;28;20019;-94
2023/11/10 05:11:07;;;;;;;4.10;1.27;;;;;;;6.56;100.00;98336.81;4932248;28;20137;-94
2023/11/10 05:13:33;;;;;;;5.50;1.30;;;;;;;6.56;100.00;98349.94;4947544;28;20128;-95
2023/11/10 05:15:58;;;;;;;3.45;1.20;;;;;;;6.53;100.00;98348.47;4981180;28;20038;-95
2023/11/10 05:18:27;;;;;;;2.53;1.27;;;;;;;6.50;100.00;98367.19;4953230;28;20035;-94
2023/11/10 05:20:56;;;;;;;2.67;1.35;;;;;;;6.56;100.00;98378.81;4980171;28;20043;-94
2023/11/10 05:23:22;;;;;;;5.45;2.00;;;;;;;6.53;100.00;98392.28;4947689;28;21233;-95
2023/11/10 05:25:48;;;;;;;3.05;1.88;;;;;;;6.51;100.00;98381.97;4973487;28;20045;-94
2023/11/10 05:28:14;;;;;;;10.43;1.73;;;;;;;6.54;100.00;98410.50;4950389;28;20070;-94
2023/11/10 05:30:40;;;;;;;4.68;1.98;;;;;;;6.56;100.00;98410.31;4978349;28;20193;-94
2023/11/10 05:33:06;;;;;;;6.38;2.00;;;;;;;6.57;100.00;98415.41;4962081;28;20031;-94
2023/11/10 05:35:32;;;;;;;5.10;1.50;;;;;;;6.59;100.00;98423.09;4964351;28;20053;-94
2023/11/10 05:37:57;;;;;;;4.85;1.42;;;;;;;6.61;100.00;98421.13;4973273;28;20030;-95
2023/11/10 05:40:24;;;;;;;2.83;1.30;;;;;;;6.63;100.00;98428.81;4966256;28;20039;-94
2023/11/10 05:42:51;;;;;;;3.80;1.42;;;;;;;6.67;100.00;98427.50;4949080;28;20464;-95
2023/11/10 05:45:16;;;;;;;7.93;4.22;;;;;;;6.73;100.00;98439.13;4929436;28;20038;-94
2023/11/10 05:47:42;;;;;;;4.15;1.50;;;;;;;6.77;100.00;98454.38;4953840;28;20028;-94
2023/11/10 05:50:09;;;;;;;4.15;1.75;;;;;;;6.78;100.00;98461.28;4996567;28;20570;-95
2023/11/10 05:52:35;;;;;;;3.42;2.72;;;;;;;6.80;100.00;98476.88;4964587;28;20031;-94
2023/11/10 05:55:01;;;;;;;3.55;2.13;;;;;;;6.83;100.00;98481.78;4972066;28;20345;-94
2023/11/10 05:57:27;;;;;;;4.20;1.17;;;;;;;6.86;100.00;98488.50;4963790;28;20035;-93
2023/11/10 05:59:53;;;;;;;5.32;2.80;;;;;;;6.90;100.00;98489.78;4968687;28;20027;-94
2023/11/10 06:02:19;;;;;;;4.22;1.08;;;;;;;6.91;100.00;98479.13;4941637;28;20103;-93
2023/11/10 06:04:44;;;;;;;9.93;8.68;;;;;;;6.94;100.00;98485.84;4944101;28;20057;-94
2023/11/10 06:07:11;;;;;;;6.53;3.08;;;;;;;6.95;100.00;98488.31;4955896;28;20042;-94
2023/11/10 06:09:37;;;;;;;3.70;1.25;;;;;;;6.93;100.00;98492.06;4988376;28;20397;-93
2023/11/10 06:12:07;;;;;;;5.32;1.20;;;;;;;6.95;100.00;98503.25;4931833;28;20030;-94
2023/11/10 06:14:33;;;;;;;4.82;0.93;;;;;;;6.88;100.00;98510.97;4971273;28;20035;-94
2023/11/10 06:16:59;;;;;;;3.22;0.90;;;;;;;6.86;100.00;98520.84;4931892;28;20434;-94
2023/11/10 06:19:24;;;;;;;2.92;0.82;;;;;;;6.82;100.00;98527.41;4973786;28;20494;-94
2023/11/10 06:21:50;;;;;;;2.88;0.70;;;;;;;6.85;100.00;98531.50;4943906;28;20125;-93
2023/11/10 06:24:17;;;;;;;5.47;0.93;;;;;;;6.78;100.00;98542.69;4988942;28;20031;-93
2023/11/10 06:26:43;;;;;;;2.42;1.25;;;;;;;6.80;100.00;98542.53;4923900;28;20630;-93
2023/11/10 06:29:08;;;;;;;4.82;1.05;;;;;;;6.81;100.00;98554.66;4981957;28;20035;-93
2023/11/10 06:31:34;;;;;;;2.08;0.80;;;;;;;6.78;100.00;98558.44;4947310;28;20697;-94
2023/11/10 06:34:00;;;;;;;5.40;0.95;;;;;;;6.73;100.00;98570.41;4961225;28;20049;-94
2023/11/10 06:36:26;;;;;;;4.32;0.80;;;;;;;6.68;100.00;98568.28;4941400;28;20035;-94
2023/11/10 06:38:52;;;;;;;6.85;0.95;;;;;;;6.68;100.00;98577.00;4922179;28;20034;-93
2023/11/10 06:41:18;;;;;;;4.47;0.88;;;;;;;6.70;100.00;98587.34;4955954;28;20042;-93
2023/11/10 06:43:47;;;;;;;3.65;0.70;;;;;;;6.69;100.00;98599.63;4944310;28;20034;-94
2023/11/10 06:46:20;;;;;;;3.80;0.80;;;;;;;6.72;100.00;98608.97;4945627;28;20090;-90
2023/11/10 06:48:47;;;;;;;4.10;1.20;;;;;;;6.62;100.00;98603.91;4960112;28;20081;-91
2023/11/10 06:51:13;;;;;;;4.15;1.00;;;;;;;6.65;100.00;98624.59;4943144;28;20128;-93
2023/11/10 06:53:38;;;;;;;4.25;0.77;;;;;;;6.65;100.00;98621.13;4935869;28;20106;-94
2023/11/10 06:56:04;;;;;;;9.70;2.95;;;;;;;6.64;100.00;98624.75;4948127;28;20034;-93
2023/11/10 06:58:30;;;;;;;4.05;0.60;;;;;;;6.60;100.00;98631.28;4959264;28;20041;-93
2023/11/10 07:00:58;;;;;;;3.60;1.10;;;;;;;6.55;100.00;98637.88;4942296;29;20043;-93
2023/11/10 07:03:24;;;;;;;4.65;0.75;;;;;;;6.52;100.00;98638.19;4946905;28;20035;-93
2023/11/10 07:05:50;;;;;;;5.65;0.68;;;;;;;6.45;100.00;98651.13;4924779;28;20037;-93
2023/11/10 07:08:17;;;;;;;4.15;0.77;;;;;;;6.47;100.00;98671.16;4945409;28;20387;-93
2023/11/10 07:10:44;;;;;;;3.85;1.00;;;;;;;6.47;100.00;98689.53;4981401;28;20041;-93
2023/11/10 07:13:11;;;;;;;6.13;1.30;;;;;;;6.44;100.00;98681.00;4981374;28;20042;-92
2023/11/10 07:15:38;;;;;;;7.72;1.00;;;;;;;6.47;100.00;98692.97;4985523;28;20037;-90
2023/11/10 07:18:04;;;;;;;9.88;1.20;;;;;;;6.45;100.00;98706.25;4948773;28;20111;-90
2023/11/10 07:20:30;;;;;;;5.95;1.52;;;;;;;6.48;100.00;98713.00;4948316;28;20048;-90
2023/11/10 07:22:58;;;;;;;5.65;1.50;;;;;;;6.50;100.00;98711.00;4929379;28;20474;-92
2023/11/10 07:25:26;;;;;;;5.60;1.40;;;;;;;6.51;100.00;98714.47;4931070;28;20126;-93
2023/11/10 07:27:55;;;;;;;7.35;1.02;;;;;;;6.55;100.00;98718.41;4974257;28;20049;-93
2023/11/10 07:30:22;;;;;;;4.13;0.75;;;;;;;6.53;100.00;98726.44;4915904;28;20035;-94
2023/11/10 07:32:50;;;;;;;4.50;0.95;;;;;;;6.60;100.00;98731.03;4942066;28;20034;-93
2023/11/10 07:35:18;;;;;;;4.82;0.98;;;;;;;6.60;100.00;98736.28;4924492;28;20123;-93
2023/11/10 07:37:45;;;;;;;2.58;1.00;;;;;;;6.64;100.00;98743.69;4957015;28;20105;-93
2023/11/10 07:40:13;;;;;;;5.32;1.00;;;;;;;6.60;100.00;98749.41;4955681;28;20038;-93
2023/11/10 07:42:43;;;;;;;5.05;0.93;;;;;;;6.65;100.00;98765.53;4961896;28;20104;-93
2023/11/10 07:45:14;;;;;;;2.95;0.80;;;;;;;6.64;100.00;98766.50;4972380;28;20031;-93
2023/11/10 07:47:47;;;;;;;3.55;0.77;;;;;;;6.66;100.00;98769.78;4971824;28;20030;-93
2023/11/10 07:50:14;;;;;;;5.60;1.13;;;;;;;6.67;100.00;98763.56;4950340;28;20043;-93
2023/11/10 07:52:44;;;;;;;6.60;0.80;;;;;;;6.69;100.00;98765.03;4944937;28;20125;-92
2023/11/10 07:55:10;;;;;;;4.40;0.88;;;;;;;6.71;100.00;98767.50;4958682;28;20034;-93
2023/11/10 07:57:36;;;;;;;4.03;0.70;;;;;;;6.72;100.00;98773.59;4936374;28;20122;-93
2023/11/10 08:00:06;;;;;;;2.83;0.88;;;;;;;6.69;100.00;98774.72;4933555;28;20038;-94
2023/11/10 08:02:37;;;;;;;;;;;;;;;6.71;100.00;98780.63;4953633;28;20035;-94
2023/11/10 08:05:04;;;;;;;6.72;0.85;;;;;;;6.68;100.00;98791.47;4966376;28;19921;-94
2023/11/10 08:07:30;;;;;;;10.20;1.08;;;;;;;6.70;100.00;98790.31;4967654;28;21405;-93
2023/11/10 08:09:56;;;;;;;4.35;0.50;;;;;;;6.78;100.00;98788.69;4939146;28;20031;-93
2023/11/10 08:12:23;;;;;;;5.72;0.70;;;;;;;6.80;100.00;98784.91;4924470;28;20053;-84
2023/11/10 08:14:50;;;;;;;5.65;1.25;;;;;;;6.81;100.00;98788.38;4954624;28;20027;-93
2023/11/10 08:17:16;;;;;;;5.93;0.77;;;;;;;6.82;100.00;98797.88;4954268;28;20058;-93
2023/11/10 08:19:42;;;;;;;5.22;0.63;;;;;;;6.83;100.00;98802.19;4964763;28;20150;-95
2023/11/10 08:22:08;;;;;;;6.47;0.77;;;;;;;6.90;100.00;98807.59;4952027;28;20046;-94
2023/11/10 08:24:34;;;;;;;2.00;0.50;;;;;;;6.89;100.00;98814.66;4940265;29;20039;-93
2023/11/10 08:27:00;;;;;;;5.10;0.70;;;;;;;6.92;100.00;98806.47;4963615;28;20098;-94
2023/11/10 08:29:26;;;;;;;5.18;1.00;;;;;;;6.97;100.00;98811.22;4939909;28;20038;-93
2023/11/10 08:31:52;;;;;;;5.90;0.85;;;;;;;7.01;100.00;98828.31;4927004;28;20150;-91
2023/11/10 08:34:21;;;;;;;4.70;1.20;;;;;;;7.03;100.00;98834.22;4946232;28;20130;-91
2023/11/10 08:36:48;;;;;;;4.45;0.65;;;;;;;7.03;100.00;98830.75;4941714;28;20030;-93
2023/11/10 08:39:18;;;;;;;3.00;0.95;;;;;;;7.09;100.00;98851.13;4973516;28;20046;-92
2023/11/10 08:41:48;;;;;;;5.78;0.80;;;;;;;7.13;100.00;98855.09;4938401;28;20101;-92
2023/11/10 08:44:14;;;;;;;4.57;1.38;;;;;;;7.16;100.00;98861.84;4954386;28;20142;-94
2023/11/10 08:46:43;;;;;;;6.07;0.60;;;;;;;7.13;100.00;98865.63;4960027;28;20046;-93
2023/11/10 08:49:11;;;;;;;8.52;0.52;;;;;;;7.17;100.00;98871.34;4920334;28;20045;-93
2023/11/10 08:51:38;;;;;;;5.93;0.80;;;;;;;7.20;100.00;98878.91;4941807;28;20049;-93
2023/11/10 08:54:04;;;;;;;4.95;0.80;;;;;;;7.22;100.00;98882.22;4945811;28;20031;-93
2023/11/10 08:56:30;;;;;;;6.53;0.80;;;;;;;7.25;100.00;98891.56;4961813;28;20043;-93
2023/11/10 08:58:57;;;;;;;5.25;0.90;;;;;;;7.28;100.00;98888.63;4970266;28;20137;-93
2023/11/10 09:01:22;;;;;;;3.22;0.70;;;;;;;7.28;100.00;98888.63;4967948;28;20041;-90
2023/11/10 09:03:49;;;;;;;5.85;0.90;;;;;;;7.33;100.00;98891.59;4972121;28;20038;-89
2023/11/10 09:06:15;;;;;;;4.45;0.70;;;;;;;7.37;100.00;98890.28;4987128;28;20066;-94
2023/11/10 09:08:41;;;;;;;3.85;0.95;;;;;;;7.43;100.00;98904.59;4922608;29;20043;-93
2023/11/10 09:11:07;;;;;;;1.73;0.50;;;;;;;7.56;100.00;98904.91;4954922;28;20049;-93
2023/11/10 09:13:33;;;;;;;12.18;1.30;;;;;;;7.64;100.00;98916.44;4931270;29;20475;-96
2023/11/10 09:15:59;;;;;;;6.70;1.00;;;;;;;7.73;100.00;98909.38;4922288;28;20030;-95
2023/11/10 09:18:27;;;;;;;4.78;0.60;;;;;;;7.73;100.00;98912.84;4972439;28;20036;-96
2023/11/10 09:20:53;;;;;;;9.43;1.80;;;;;;;7.79;100.00;98922.69;4969220;28;20043;-91
2023/11/10 09:23:19;;;;;;;7.60;0.73;;;;;;;7.87;100.00;98927.13;4966588;28;20041;-92
2023/11/10 09:25:44;;;;;;;2.67;0.40;;;;;;;7.86;100.00;98932.56;4955513;28;20030;-92
2023/11/10 09:28:11;;;;;;;6.05;0.52;;;;;;;7.92;100.00;98943.25;4956196;28;20035;-92
2023/11/10 09:30:37;;;;;;;4.30;0.45;;;;;;;8.00;100.00;98947.69;4948030;28;20034;-93
2023/11/10 09:33:02;;;;;;;4.05;1.15;;;;;;;7.98;100.00;98949.66;4954429;28;20399;-93
2023/11/10 09:35:28;;;;;;;4.00;0.77;;;;;;;7.97;100.00;98949.81;4972656;28;20049;-94
2023/11/10 09:37:56;;;;;;;3.33;0.65;;;;;;;7.95;100.00;98947.34;4939359;28;20416;-94
2023/11/10 09:40:23;;;;;;;10.02;0.70;;;;;;;7.97;100.00;98944.56;4971412;28;20688;-93
2023/11/10 09:42:49;;;;;;;4.03;0.75;;;;;;;7.98;100.00;98954.13;4941876;28;20526;-92
2023/11/10 09:45:16;;;;;;;6.68;0.50;;;;;;;8.01;100.00;98953.78;4953818;28;20043;-92
2023/11/10 09:47:44;;;;;;;5.15;1.02;;;;;;;7.94;100.00;98962.34;4951783;28;20039;-94
2023/11/10 09:50:13;;;;;;;8.93;0.82;;;;;;;7.94;100.00;98969.41;4962531;28;20035;-92
2023/11/10 09:52:40;;;;;;;4.55;1.05;;;;;;;7.93;100.00;98976.47;4928811;28;20034;-93
2023/11/10 09:55:07;;;;;;;5.72;0.70;;;;;;;7.89;100.00;98988.31;4945307;28;20046;-94
2023/11/10 09:57:33;;;;;;;10.00;1.40;;;;;;;7.85;100.00;98981.72;4942834;28;20094;-92
2023/11/10 09:59:59;;;;;;;3.88;0.70;;;;;;;7.86;100.00;98987.81;4946689;28;20039;-92
2023/11/10 10:02:26;;;;;;;3.90;0.80;;;;;;;7.91;100.00;98996.88;4981677;28;20027;-93
2023/11/10 10:04:51;;;;;;;2.40;0.38;;;;;;;7.93;100.00;99004.59;4943952;28;20051;-93
2023/11/10 10:07:17;;;;;;;4.63;1.15;;;;;;;8.02;100.00;99008.88;4947627;28;20035;-93
2023/11/10 10:09:44;;;;;;;2.47;0.60;;;;;;;8.12;100.00;99007.91;4974965;28;20455;-94
2023/11/10 10:12:11;;;;;;;3.72;0.50;;;;;;;8.10;100.00;99009.88;4942551;28;20035;-90
2023/11/10 10:14:38;;;;;;;4.43;0.60;;;;;;;8.04;100.00;99016.63;4964410;28;20098;-92
2023/11/10 10:17:04;;;;;;;4.40;0.47;;;;;;;8.04;100.00;99017.41;4927737;28;20046;-94
2023/11/10 10:19:30;;;;;;;3.65;0.68;;;;;;;7.99;100.00;99034.69;4945091;28;20482;-93
2023/11/10 10:21:59;;;;;;;3.47;0.65;;;;;;;7.97;100.00;99036.66;4945282;28;20067;-91
2023/11/10 10:24:25;;;;;;;4.68;1.13;;;;;;;7.97;100.00;99040.13;4978823;28;20038;-91
2023/11/10 10:26:51;;;;;;;3.75;0.93;;;;;;;7.95;100.00;99047.34;4950398;28;20045;-94
2023/11/10 10:29:18;;;;;;;1.45;0.50;;;;;;;7.94;100.00;99049.16;4965822;28;20038;-95
2023/11/10 10:31:45;;;;;;;5.55;0.65;;;;;;;7.98;100.00;99059.38;4946363;28;20046;-89
2023/11/10 10:34:12;;;;;;;4.68;0.90;;;;;;;8.04;100.00;99061.34;4946318;28;20042;-89
2023/11/10 10:36:38;;;;;;;6.18;0.93;;;;;;;8.09;100.00;99066.94;4945808;28;20760;-94
2023/11/10 10:39:12;;;;;;;5.50;0.85;;;;;;;8.14;100.00;99059.38;4946664;28;20506;-95
2023/11/10 10:41:42;;;;;;;7.85;1.38;;;;;;;8.22;100.00;99057.75;4942769;28;20046;-94
2023/11/10 10:44:08;;;;;;;5.22;0.70;;;;;;;8.25;100.00;99060.06;4943419;28;20054;-94
2023/11/10 10:46:38;;;;;;;1.85;0.30;;;;;;;8.34;100.00;99074.03;4971951;28;20440;-94
2023/11/10 10:49:12;;;;;;;3.97;0.50;;;;;;;8.41;100.00;99075.00;4940684;28;20042;-94
2023/11/10 10:51:38;;;;;;;4.85;0.40;;;;;;;8.52;100.00;99079.16;4946390;28;20529;-94
2023/11/10 10:54:06;;;;;;;5.10;0.50;;;;;;;8.58;100.00;99089.06;4962700;28;20034;-95
2023/11/10 10:56:37;;;;;;;7.82;1.10;;;;;;;8.69;100.00;99095.81;4968451;28;20104;-93
2023/11/10 10:59:04;;;;;;;4.63;1.05;;;;;;;8.72;100.00;99105.16;4961146;28;20026;-94
2023/11/10 11:01:29;;;;;;;6.97;0.90;;;;;;;8.73;100.00;99120.00;4960869;28;20042;-95
2023/11/10 11:04:22;;;;;;;4.75;1.17;;;;;;;8.86;100.00;99111.59;4970698;28;20113;-95
2023/11/10 11:07:10;;;;;;;3.45;1.10;;;;;;;8.79;100.00;99106.97;4947118;28;20430;-94
2023/11/10 11:10:03;;;;;;;5.70;1.80;;;;;;;8.91;100.00;99109.28;4962082;28;20034;-94
2023/11/10 11:12:35;;;;;;;4.15;0.95;;;;;;;8.95;100.00;99110.56;4967005;28;20049;-95
2023/11/10 11:15:22;;;;;;;5.82;0.70;;;;;;;9.02;100.00;99121.28;4945854;28;20034;-94
2023/11/10 11:18:17;;;;;;;8.93;0.98;;;;;;;9.11;100.00;99122.13;4940672;28;20559;-93
2023/11/10 11:20:46;;;;;;;4.57;0.90;;;;;;;9.14;100.00;99121.78;4958384;28;20143;-95
2023/11/10 11:23:13;;;;;;;12.48;1.08;;;;;;;9.11;100.00;99116.84;4945155;28;20031;-94
2023/11/10 11:25:40;;;;;;;2.97;0.75;;;;;;;9.24;100.00;99116.28;4960491;28;20240;-93
2023/11/10 11:28:06;;;;;;;3.50;0.55;;;;;;;9.25;100.00;99123.22;4944911;28;20029;-94
2023/11/10 11:30:36;;;;;;;1.58;0.50;;;;;;;9.34;100.00;99124.84;4961590;28;20042;-93
2023/11/10 11:33:09;;;;;;;7.55;0.80;;;;;;;9.27;100.00;99122.06;4944443;28;20281;-94
2023/11/10 11:35:50;;;;;;;4.28;0.80;;;;;;;9.35;100.00;99125.69;4967577;28;20042;-93
2023/11/10 11:38:26;;;;;;;4.43;0.70;;;;;;;9.35;100.00;99118.56;4960658;28;20034;-92
2023/11/10 11:40:54;;;;;;;;;;;;;;;9.32;100.00;99123.38;4941549;28;20517;-93
2023/11/10 11:43:26;;;;;;;3.78;0.55;;;;;;;9.43;100.00;99131.75;4948500;28;19918;-94